Time;durP1;ratioP1;P1;durP2;ratioP2;P2;SDS_P1;SDS_P2;PMS_P1;PMS_P2;Temp;Humidity;BMP_temperature;BMP_pressure;BME280_temperature;BME280_humidity;BME280_pressure;Samples;Min_cycle;Max_cycle;Signal;HPM_P1;HPM_P2
2023/02/26 00:01:25;;;;;;;5.53;1.17;;;-1.30;99.90;;;-3.20;100.00;100698.31;5031359;28;20065;-78
2023/02/26 00:03:53;;;;;;;3.13;1.20;;;-1.30;99.90;;;-3.20;100.00;100699.16;5046103;28;20473;-78
2023/02/26 00:06:19;;;;;;;3.83;1.40;;;-1.40;99.90;;;-3.19;100.00;100706.22;5039592;28;20049;-78
2023/02/26 00:08:45;;;;;;;4.13;1.55;;;-1.40;99.90;;;-3.23;100.00;100710.09;5031116;28;20481;-78
2023/02/26 00:11:11;;;;;;;5.57;1.17;;;-1.40;99.90;;;-3.16;100.00;100722.94;5035830;28;20188;-79
2023/02/26 00:13:40;;;;;;;3.78;1.25;;;-1.40;99.90;;;-3.14;100.00;100721.00;5030869;28;20037;-78
2023/02/26 00:16:35;;;;;;;4.82;1.15;;;-1.30;99.90;;;-3.07;100.00;100730.19;5051036;28;20477;-78
2023/02/26 00:19:07;;;;;;;6.70;1.52;;;-1.30;99.90;;;-3.09;100.00;100727.66;5036709;28;20053;-78
2023/02/26 00:21:34;;;;;;;3.55;1.10;;;-1.30;99.90;;;-2.97;100.00;100728.47;5043717;28;20071;-79
2023/02/26 00:24:01;;;;;;;2.50;1.00;;;-1.10;99.90;;;-2.87;100.00;100731.25;5057802;28;20026;-79
2023/02/26 00:26:30;;;;;;;2.80;1.27;;;-1.00;99.90;;;-2.82;100.00;100731.69;5049015;28;20424;-78
2023/02/26 00:28:56;;;;;;;2.70;1.20;;;-0.90;99.90;;;-2.78;100.00;100727.78;5035189;28;20061;-79
2023/02/26 00:31:25;;;;;;;3.05;1.00;;;-0.80;99.90;;;-2.77;100.00;100744.69;5050102;28;20045;-80
2023/02/26 00:33:55;;;;;;;3.25;1.10;;;-0.80;99.90;;;-2.82;100.00;100741.50;5054519;28;20485;-79
2023/02/26 00:36:28;;;;;;;1.98;1.10;;;-0.90;99.90;;;-2.87;100.00;100744.59;5039459;28;20068;-79
2023/02/26 00:39:33;;;;;;;3.95;1.10;;;-1.00;99.90;;;-2.95;100.00;100749.69;5051187;28;20048;-79
2023/02/26 00:41:59;;;;;;;3.88;1.20;;;-1.00;99.90;;;-3.04;100.00;100756.66;5053657;28;20049;-80
2023/02/26 00:44:25;;;;;;;3.50;1.30;;;-1.10;99.90;;;-3.01;100.00;100764.41;5053256;28;20061;-80
2023/02/26 00:47:02;;;;;;;4.20;1.23;;;-1.10;99.90;;;-2.99;100.00;100770.47;5050913;28;20389;-79
2023/02/26 00:49:48;;;;;;;5.78;1.33;;;-1.10;99.90;;;-2.91;100.00;100775.19;5060097;28;20133;-79
2023/02/26 00:52:38;;;;;;;2.17;1.10;;;-1.00;99.90;;;-2.90;100.00;100771.53;5051294;28;20432;-80
2023/02/26 00:55:04;;;;;;;;;;;-1.00;99.90;;;-2.84;100.00;100770.16;5039107;28;20033;-80
2023/02/26 00:57:29;;;;;;;3.05;1.77;;;-0.90;99.90;;;-2.79;100.00;100774.16;5035610;28;19921;-80
2023/02/26 00:59:55;;;;;;;5.72;1.23;;;-0.90;99.90;;;-2.86;100.00;100773.00;5034290;28;20084;-80
2023/02/26 01:02:21;;;;;;;3.47;1.15;;;-0.90;99.90;;;-2.80;100.00;100775.16;5064885;28;20511;-80
2023/02/26 01:04:47;;;;;;;2.80;0.85;;;-0.80;99.90;;;-2.82;100.00;100777.09;5047397;28;20041;-80
2023/02/26 01:07:18;;;;;;;6.32;1.00;;;-0.90;99.90;;;-2.81;100.00;100788.59;5047301;28;20123;-80
2023/02/26 01:09:44;;;;;;;4.95;1.10;;;-0.90;99.90;;;-2.86;100.00;100775.66;5046071;28;20067;-81
2023/02/26 01:12:12;;;;;;;2.05;0.90;;;-0.90;99.90;;;-2.82;100.00;100769.09;5056646;28;20084;-80
2023/02/26 01:14:40;;;;;;;2.55;1.48;;;-0.90;99.90;;;-2.81;100.00;100778.78;5050893;28;20476;-81
2023/02/26 01:17:34;;;;;;;3.38;1.30;;;-0.90;99.90;;;-2.86;100.00;100778.31;5036846;28;20039;-81
2023/02/26 01:20:23;;;;;;;3.38;1.13;;;-0.90;99.90;;;-2.85;100.00;100776.50;5040168;28;20112;-80
2023/02/26 01:22:56;;;;;;;3.15;0.90;;;-0.90;99.90;;;-2.89;100.00;100786.59;5039941;28;20138;-80
2023/02/26 01:25:49;;;;;;;4.88;0.77;;;-1.00;99.90;;;-2.90;100.00;100780.38;5055603;28;20488;-81
2023/02/26 01:28:15;;;;;;;2.38;1.10;;;-0.90;99.90;;;-2.95;100.00;100779.94;5058799;28;20041;-79
2023/02/26 01:30:42;;;;;;;2.33;0.80;;;-1.00;99.90;;;-2.95;100.00;100792.41;5042566;28;20040;-81
2023/02/26 01:33:46;;;;;;;3.42;0.57;;;-1.00;99.90;;;-2.97;100.00;100797.03;5037378;28;20327;-81
2023/02/26 01:36:20;;;;;;;3.00;1.00;;;-1.10;99.90;;;-3.00;100.00;100800.81;5049280;28;20048;-80
2023/02/26 01:38:58;;;;;;;3.53;1.10;;;-1.00;99.90;;;-3.02;100.00;100805.44;5033057;28;20040;-80
2023/02/26 01:41:37;;;;;;;1.73;0.80;;;-1.10;99.90;;;-3.03;100.00;100809.91;5032093;28;20320;-81
2023/02/26 01:44:28;;;;;;;1.73;0.80;;;-1.10;99.90;;;-3.03;100.00;100806.41;5054917;28;20485;-80
2023/02/26 01:47:39;;;;;;;1.30;0.70;;;-1.10;99.90;;;-3.00;100.00;100813.31;5057689;28;20033;-81
2023/02/26 01:50:17;;;;;;;2.47;1.10;;;-1.10;99.90;;;-3.06;100.00;100812.84;5053346;28;20037;-80
2023/02/26 01:52:49;;;;;;;1.80;0.73;;;-1.10;99.90;;;-3.00;100.00;100818.63;5060139;28;20045;-80
2023/02/26 01:55:19;;;;;;;2.72;0.93;;;-1.10;99.90;;;-2.99;100.00;100825.69;5064688;28;20044;-80
2023/02/26 01:57:48;;;;;;;4.10;0.90;;;-1.10;99.90;;;-2.99;100.00;100825.69;5054682;28;20028;-80
2023/02/26 02:00:15;;;;;;;2.75;1.25;;;-1.10;99.90;;;-2.99;100.00;100825.69;5044123;28;20025;-80
2023/02/26 02:02:41;;;;;;;3.67;0.90;;;-1.00;99.90;;;-2.99;100.00;100823.88;5031176;28;20079;-80
2023/02/26 02:05:17;;;;;;;6.07;1.30;;;-1.00;99.90;;;-2.99;100.00;100841.69;5045523;28;20037;-79
2023/02/26 02:07:45;;;;;;;3.10;1.10;;;-1.00;99.90;;;-2.97;100.00;100834.41;5039082;28;20064;-80
2023/02/26 02:10:11;;;;;;;3.17;1.10;;;-1.00;99.90;;;-2.95;100.00;100838.66;5053862;28;20067;-78
2023/02/26 02:13:13;;;;;;;6.65;1.83;;;-1.00;99.90;;;-2.96;100.00;100846.78;5054222;28;20069;-80
2023/02/26 02:16:07;;;;;;;3.20;0.80;;;-1.00;99.90;;;-2.97;100.00;100858.44;5059156;28;20069;-79
2023/02/26 02:19:17;;;;;;;2.60;0.65;;;-1.00;99.90;;;-2.99;100.00;100857.72;5030130;28;20060;-80
2023/02/26 02:22:14;;;;;;;4.20;0.88;;;-1.00;99.90;;;-2.98;100.00;100864.75;5041703;28;20056;-79
2023/02/26 02:25:33;;;;;;;2.35;0.73;;;-1.00;99.90;;;-3.00;100.00;100874.72;5059198;28;20029;-80
2023/02/26 02:28:40;;;;;;;5.50;1.10;;;-1.10;99.90;;;-3.00;100.00;100875.56;5036521;28;20429;-79
2023/02/26 02:31:35;;;;;;;3.40;0.82;;;-1.10;99.90;;;-3.00;100.00;100877.38;5040795;28;20095;-80
2023/02/26 02:34:47;;;;;;;3.00;1.10;;;-1.10;99.90;;;-2.99;100.00;100871.06;5049883;28;20029;-80
2023/02/26 02:37:29;;;;;;;5.95;1.10;;;-1.10;99.90;;;-3.06;100.00;100874.22;5022194;28;20079;-79
2023/02/26 02:40:10;;;;;;;3.17;0.85;;;-1.10;99.90;;;-3.07;100.00;100871.66;5047511;28;20029;-81
2023/02/26 02:43:05;;;;;;;4.88;1.00;;;-1.10;99.90;;;-3.11;100.00;100865.75;5042145;28;20061;-81
2023/02/26 02:45:41;;;;;;;5.65;1.15;;;-1.10;99.90;;;-3.09;100.00;100874.47;5032338;28;20481;-80
2023/02/26 02:48:27;;;;;;;4.93;0.95;;;-1.10;99.90;;;-3.05;100.00;100883.06;5047576;28;20060;-79
2023/02/26 02:51:06;;;;;;;1.65;0.90;;;-1.10;99.90;;;-3.01;100.00;100902.38;5035306;28;20028;-80
2023/02/26 02:53:58;;;;;;;;;;;-1.10;99.90;;;-3.03;100.00;100890.00;5037335;28;20053;-79
2023/02/26 02:56:45;;;;;;;4.72;1.40;;;-1.10;99.90;;;-3.05;100.00;100889.28;5047338;28;19928;-79
2023/02/26 02:59:28;;;;;;;4.55;1.17;;;-1.10;99.90;;;-3.03;100.00;100894.50;5038338;28;20128;-80
2023/02/26 03:02:36;;;;;;;4.15;1.05;;;-1.10;99.90;;;-2.98;100.00;100896.78;5045179;28;20127;-79
2023/02/26 03:05:04;;;;;;;2.63;1.02;;;-1.10;99.90;;;-3.01;100.00;100894.38;5047296;28;20032;-79
2023/02/26 03:07:36;;;;;;;2.88;1.13;;;-1.00;99.90;;;-2.99;100.00;100905.78;5043563;28;20500;-80
2023/02/26 03:10:03;;;;;;;4.63;1.13;;;-1.10;99.90;;;-2.93;100.00;100899.94;5032800;28;20033;-81
2023/02/26 03:12:33;;;;;;;5.38;1.10;;;-1.00;99.90;;;-2.90;100.00;100902.38;5044900;28;20562;-80
2023/02/26 03:15:00;;;;;;;4.13;0.85;;;-0.90;99.90;;;-2.90;100.00;100897.06;5051910;28;20069;-81
2023/02/26 03:17:42;;;;;;;7.30;1.08;;;-0.90;99.90;;;-2.87;100.00;100910.16;5039190;28;20041;-81
2023/02/26 03:20:33;;;;;;;4.55;0.75;;;-0.90;99.90;;;-2.85;100.00;100913.56;5036794;28;20044;-80
2023/02/26 03:23:17;;;;;;;3.85;0.88;;;-0.90;99.90;;;-2.83;100.00;100927.63;5052054;28;20026;-80
2023/02/26 03:26:08;;;;;;;4.30;1.40;;;-0.90;99.90;;;-2.86;100.00;100921.66;5046900;28;20493;-80
2023/02/26 03:28:56;;;;;;;3.45;0.90;;;-0.90;99.90;;;-2.85;100.00;100920.69;5041743;28;20480;-80
2023/02/26 03:31:36;;;;;;;3.15;0.70;;;-0.90;99.90;;;-2.82;100.00;100929.31;5046430;28;20120;-80
2023/02/26 03:34:11;;;;;;;2.90;1.30;;;-0.90;99.90;;;-2.79;100.00;100931.75;5049592;28;20032;-79
2023/02/26 03:36:48;;;;;;;3.63;1.40;;;-0.90;99.90;;;-2.78;100.00;100930.78;5055380;28;20056;-82
2023/02/26 03:39:30;;;;;;;4.60;1.23;;;-0.90;99.90;;;-2.80;100.00;100937.19;5043644;28;20028;-80
2023/02/26 03:42:35;;;;;;;3.15;0.95;;;-0.90;99.90;;;-2.79;100.00;100937.09;5059092;28;20125;-81
2023/02/26 03:45:13;;;;;;;2.80;0.95;;;-0.80;99.90;;;-2.73;100.00;100946.44;5063626;28;20043;-79
2023/02/26 03:47:45;;;;;;;2.63;0.93;;;-0.80;99.90;;;-2.74;100.00;100947.41;5038960;28;20033;-80
2023/02/26 03:50:31;;;;;;;2.90;1.02;;;-0.80;99.90;;;-2.71;100.00;100951.66;5058340;28;20971;-79
2023/02/26 03:53:32;;;;;;;2.95;0.88;;;-0.80;99.90;;;-2.67;100.00;100956.63;5052744;28;20065;-77
2023/02/26 03:56:21;;;;;;;5.07;0.90;;;-0.80;99.90;;;-2.68;100.00;100959.41;5048057;28;20033;-79
2023/02/26 03:59:21;;;;;;;3.65;0.80;;;-0.80;99.90;;;-2.67;100.00;100967.31;5039978;28;20040;-80
2023/02/26 04:02:36;;;;;;;3.03;0.82;;;-0.70;99.90;;;-2.68;100.00;100967.41;5035200;28;20044;-80
2023/02/26 04:05:28;;;;;;;2.38;0.73;;;-0.80;99.90;;;-2.66;100.00;100973.50;5048673;28;20154;-79
2023/02/26 04:07:56;;;;;;;2.92;1.15;;;-0.70;99.90;;;-2.69;100.00;100971.06;5058769;28;20029;-80
2023/02/26 04:10:31;;;;;;;;;;;-0.70;99.90;;;-2.65;100.00;100985.91;5042893;28;20124;-81
2023/02/26 04:13:01;;;;;;;3.00;0.80;;;-0.70;99.90;;;-2.70;100.00;100964.03;5048600;28;19928;-79
2023/02/26 04:15:27;;;;;;;2.28;0.63;;;-0.70;99.90;;;-2.65;100.00;100976.06;5060044;28;20057;-79
2023/02/26 04:17:53;;;;;;;3.38;0.98;;;-0.70;99.90;;;-2.65;100.00;100984.06;5045638;28;20045;-79
2023/02/26 04:20:19;;;;;;;4.20;0.98;;;-0.70;99.90;;;-2.62;100.00;100991.00;5048364;28;20067;-80
2023/02/26 04:22:45;;;;;;;3.50;1.05;;;-0.70;99.90;;;-2.54;100.00;100996.56;5049756;28;20539;-79
2023/02/26 04:25:11;;;;;;;4.03;1.40;;;-0.60;99.90;;;-2.53;100.00;100997.41;5068864;28;20037;-80
2023/02/26 04:27:37;;;;;;;3.92;1.00;;;-0.60;99.90;;;-2.53;100.00;100998.28;5048992;28;20105;-79
2023/02/26 04:30:04;;;;;;;4.75;0.98;;;-0.60;99.90;;;-2.53;100.00;101006.28;5065880;28;20033;-79
2023/02/26 04:32:31;;;;;;;3.15;0.90;;;-0.60;99.90;;;-2.55;100.00;101005.56;5046639;28;20112;-79
2023/02/26 04:34:57;;;;;;;3.90;1.02;;;-0.60;99.90;;;-2.50;100.00;101008.72;5053296;28;20400;-79
2023/02/26 04:37:23;;;;;;;4.85;0.70;;;-0.60;99.90;;;-2.48;100.00;101020.13;5055243;28;20033;-79
2023/02/26 04:39:48;;;;;;;4.57;1.35;;;-0.60;99.90;;;-2.48;100.00;101025.47;5051157;28;20518;-80
2023/02/26 04:42:14;;;;;;;1.52;0.70;;;-0.60;99.90;;;-2.49;100.00;101028.28;5048999;28;22293;-80
2023/02/26 04:44:40;;;;;;;3.67;0.95;;;-0.60;99.90;;;-2.49;100.00;101030.94;5064920;28;20033;-79
2023/02/26 04:47:06;;;;;;;1.95;0.75;;;-0.60;99.90;;;-2.50;100.00;101029.25;5050432;28;20029;-80
2023/02/26 04:49:33;;;;;;;2.83;0.93;;;-0.60;99.90;;;-2.47;100.00;101026.34;5050710;28;20065;-79
2023/02/26 04:51:59;;;;;;;2.65;0.75;;;-0.60;99.90;;;-2.50;100.00;101030.09;5049265;28;20118;-81
2023/02/26 04:54:25;;;;;;;6.35;1.67;;;-0.60;99.90;;;-2.48;100.00;101030.81;5051445;28;20052;-80
2023/02/26 04:56:50;;;;;;;3.85;1.27;;;-0.60;99.90;;;-2.52;100.00;101029.38;5052570;28;20091;-80
2023/02/26 04:59:16;;;;;;;2.72;1.00;;;-0.60;99.90;;;-2.51;100.00;101039.06;5046625;28;20036;-80
2023/02/26 05:01:42;;;;;;;4.75;1.27;;;-0.60;99.90;;;-2.54;100.00;101046.47;5068138;28;20086;-80
2023/02/26 05:04:08;;;;;;;2.05;0.95;;;-0.60;99.90;;;-2.53;100.00;101048.19;5050139;28;20029;-81
2023/02/26 05:06:34;;;;;;;5.68;1.17;;;-0.60;99.90;;;-2.56;100.00;101051.97;5067818;28;20037;-80
2023/02/26 05:09:00;;;;;;;3.63;1.00;;;-0.60;99.90;;;-2.51;100.00;101059.63;5049890;28;20056;-81
2023/02/26 05:11:25;;;;;;;2.25;0.85;;;-0.60;99.90;;;-2.51;100.00;101055.09;5049205;28;20080;-80
2023/02/26 05:13:51;;;;;;;1.88;0.80;;;-0.60;99.90;;;-2.54;100.00;101063.38;5056686;28;20754;-80
2023/02/26 05:16:17;;;;;;;2.55;0.98;;;-0.60;99.90;;;-2.51;100.00;101065.81;5065671;28;20033;-80
2023/02/26 05:18:43;;;;;;;3.20;1.02;;;-0.60;99.90;;;-2.55;100.00;101068.81;5047835;28;20025;-80
2023/02/26 05:21:08;;;;;;;4.53;1.23;;;-0.60;99.90;;;-2.62;100.00;101058.63;5049658;28;20033;-82
2023/02/26 05:23:34;;;;;;;1.27;0.55;;;-0.60;99.90;;;-2.55;100.00;101077.72;5048830;28;20036;-81
2023/02/26 05:26:00;;;;;;;2.45;0.88;;;-0.60;99.90;;;-2.56;100.00;101078.69;5056297;28;20469;-80
2023/02/26 05:28:27;;;;;;;4.95;1.00;;;-0.70;99.90;;;-2.68;100.00;101074.28;5066848;28;20036;-80
2023/02/26 05:30:55;;;;;;;2.97;1.00;;;-0.70;99.90;;;-2.67;100.00;101084.00;5042160;28;20535;-80
2023/02/26 05:33:21;;;;;;;4.18;1.02;;;-0.80;99.90;;;-2.75;100.00;101089.94;5052543;28;20091;-80
2023/02/26 05:35:47;;;;;;;4.00;1.00;;;-0.80;99.90;;;-2.76;100.00;101099.78;5054820;28;20582;-80
2023/02/26 05:38:13;;;;;;;2.60;0.80;;;-0.80;99.90;;;-2.82;100.00;101105.59;5064437;28;20071;-80
2023/02/26 05:40:39;;;;;;;2.10;0.88;;;-0.90;99.90;;;-2.92;100.00;101099.25;5057933;28;20041;-79
2023/02/26 05:43:05;;;;;;;5.07;0.80;;;-1.00;99.90;;;-2.94;100.00;101104.72;5039959;28;20044;-79
2023/02/26 05:45:30;;;;;;;4.00;1.05;;;-1.10;99.90;;;-3.01;100.00;101111.50;5037427;28;20036;-79
2023/02/26 05:47:56;;;;;;;3.55;0.82;;;-1.10;99.90;;;-3.11;100.00;101110.47;5042561;28;20469;-79
2023/02/26 05:50:22;;;;;;;3.35;1.20;;;-1.20;99.90;;;-3.20;100.00;101104.00;5053889;28;20045;-85
2023/02/26 05:52:48;;;;;;;2.95;0.75;;;-1.30;99.90;;;-3.23;100.00;101120.25;5052542;28;20142;-80
2023/02/26 05:55:13;;;;;;;4.60;0.88;;;-1.30;99.90;;;-3.26;100.00;101120.50;5059717;28;20094;-81
2023/02/26 05:57:39;;;;;;;1.38;0.50;;;-1.40;99.90;;;-3.28;100.00;101139.31;5049686;28;20514;-80
2023/02/26 06:00:07;;;;;;;2.97;0.80;;;-1.40;99.90;;;-3.33;100.00;101139.63;5040229;28;20030;-79
2023/02/26 06:02:39;;;;;;;9.88;0.90;;;-1.40;99.90;;;-3.38;100.00;101140.94;5039984;28;20111;-78
2023/02/26 06:05:05;;;;;;;2.85;0.93;;;-1.50;99.90;;;-3.41;100.00;101143.84;5033803;28;20033;-79
2023/02/26 06:07:31;;;;;;;5.07;1.13;;;-1.50;99.90;;;-3.48;100.00;101144.28;5044671;28;20048;-81
2023/02/26 06:09:57;;;;;;;4.40;0.75;;;-1.60;99.90;;;-3.49;100.00;101155.06;5054729;28;20045;-82
2023/02/26 06:12:22;;;;;;;2.47;0.70;;;-1.60;99.90;;;-3.61;100.00;101152.34;5052552;28;20055;-80
2023/02/26 06:14:48;;;;;;;2.88;0.80;;;-1.70;99.90;;;-3.57;100.00;101161.00;5055521;28;20033;-82
2023/02/26 06:17:14;;;;;;;3.53;0.70;;;-1.60;99.90;;;-3.66;100.00;101157.16;5046430;28;20063;-81
2023/02/26 06:19:40;;;;;;;2.92;0.90;;;-1.70;99.90;;;-3.63;100.00;101172.94;5047313;28;20041;-81
2023/02/26 06:22:05;;;;;;;2.72;0.63;;;-1.70;99.90;;;-3.67;100.00;101167.94;5038869;28;20392;-80
2023/02/26 06:24:31;;;;;;;3.55;0.80;;;-1.70;99.90;;;-3.67;100.00;101182.13;5061335;28;20032;-78
2023/02/26 06:26:57;;;;;;;3.90;0.90;;;-1.80;99.90;;;-3.71;100.00;101186.00;5037130;28;20640;-83
2023/02/26 06:29:23;;;;;;;2.38;0.88;;;-1.80;99.90;;;-3.75;100.00;101181.81;5065240;28;20045;-86
2023/02/26 06:31:48;;;;;;;4.78;0.98;;;-1.80;99.90;;;-3.77;100.00;101191.75;5048408;28;20086;-81
2023/02/26 06:34:14;;;;;;;3.78;1.02;;;-1.90;99.90;;;-3.82;100.00;101183.22;5048468;28;20029;-82
2023/02/26 06:36:41;;;;;;;5.93;1.00;;;-1.90;99.90;;;-3.80;100.00;101194.63;5062611;28;20443;-80
2023/02/26 06:39:06;;;;;;;2.35;0.82;;;-1.90;99.90;;;-3.83;100.00;101201.06;5042061;28;20455;-78
2023/02/26 06:41:33;;;;;;;3.38;0.85;;;-1.90;99.90;;;-3.85;100.00;101199.44;5049764;28;20047;-79
2023/02/26 06:43:58;;;;;;;5.13;1.88;;;-1.90;99.90;;;-3.91;100.00;101193.59;5042513;28;20034;-79
2023/02/26 06:46:24;;;;;;;3.95;0.93;;;-1.90;99.90;;;-3.86;100.00;101203.06;5040286;28;20037;-79
2023/02/26 06:48:50;;;;;;;3.20;0.73;;;-1.90;99.90;;;-3.76;100.00;101204.97;5060119;28;20045;-82
2023/02/26 06:51:15;;;;;;;2.00;0.60;;;-1.80;99.90;;;-3.78;100.00;101201.56;5038777;28;20120;-82
2023/02/26 06:53:41;;;;;;;2.92;0.77;;;-1.80;99.90;;;-3.63;100.00;101217.44;5044167;28;20057;-80
2023/02/26 06:56:07;;;;;;;3.90;1.75;;;-1.70;99.90;;;-3.54;100.00;101218.59;5041911;28;20037;-78
2023/02/26 06:58:34;;;;;;;4.15;1.10;;;-1.60;99.90;;;-3.43;100.00;101224.00;5044982;28;20539;-81
2023/02/26 07:01:03;;;;;;;2.80;1.23;;;-1.50;99.90;;;-3.33;100.00;101230.38;5049755;28;20037;-83
2023/02/26 07:03:30;;;;;;;2.85;1.20;;;-1.40;99.90;;;-3.24;100.00;101230.66;5049149;28;20083;-80
2023/02/26 07:05:56;;;;;;;3.80;1.20;;;-1.30;99.90;;;-3.16;100.00;101230.97;5043133;28;20033;-80
2023/02/26 07:08:22;;;;;;;4.00;1.10;;;-1.20;99.90;;;-3.05;100.00;101236.34;5039542;28;20061;-81
2023/02/26 07:10:49;;;;;;;2.90;0.80;;;-1.10;99.90;;;-3.05;100.00;101246.16;5041311;28;20121;-82
2023/02/26 07:13:16;;;;;;;1.95;0.70;;;-1.10;99.90;;;-3.06;100.00;101252.47;5046622;28;20106;-81
2023/02/26 07:15:42;;;;;;;3.55;1.08;;;-1.10;99.90;;;-3.03;100.00;101253.13;5043316;28;20549;-80
2023/02/26 07:18:08;;;;;;;1.27;0.68;;;-1.10;99.90;;;-3.16;100.00;101257.66;5063646;28;20120;-81
2023/02/26 07:20:34;;;;;;;6.07;1.10;;;-1.10;99.90;;;-3.16;100.00;101268.34;5041564;28;20072;-79
2023/02/26 07:22:59;;;;;;;5.68;0.82;;;-1.20;99.90;;;-3.20;100.00;101269.50;5042950;28;20033;-80
2023/02/26 07:25:25;;;;;;;1.33;0.70;;;-1.20;99.90;;;-3.12;100.00;101275.16;5043371;28;20040;-80
2023/02/26 07:27:51;;;;;;;5.72;1.08;;;-1.20;99.90;;;-3.22;100.00;101269.63;5033583;28;20045;-80
2023/02/26 07:30:17;;;;;;;3.00;0.70;;;-1.20;99.90;;;-3.12;100.00;101277.81;5044241;28;20052;-82
2023/02/26 07:32:43;;;;;;;4.22;1.35;;;-1.20;99.90;;;-3.03;100.00;101277.16;5036194;28;20116;-79
2023/02/26 07:35:10;;;;;;;4.13;0.90;;;-1.10;99.90;;;-3.03;100.00;101278.97;5043986;28;20033;-79
2023/02/26 07:37:37;;;;;;;1.60;1.13;;;-1.00;99.90;;;-2.97;100.00;101291.00;5049466;28;20675;-79
2023/02/26 07:40:04;;;;;;;2.40;0.80;;;-1.00;99.90;;;-2.99;100.00;101293.81;5050210;28;20125;-79
2023/02/26 07:42:30;;;;;;;4.03;0.70;;;-1.00;99.90;;;-2.92;100.00;101303.06;5049813;28;20106;-81
2023/02/26 07:44:58;;;;;;;2.50;0.80;;;-1.00;99.90;;;-2.81;100.00;101294.25;5063153;28;20044;-80
2023/02/26 07:47:23;;;;;;;2.45;0.75;;;-0.80;99.90;;;-2.85;100.00;101298.13;5043270;28;20297;-79
2023/02/26 07:49:49;;;;;;;2.38;0.77;;;-0.90;99.90;;;-2.90;100.00;101301.13;5040300;28;20095;-82
2023/02/26 07:52:15;;;;;;;2.92;1.00;;;-0.90;99.90;;;-2.83;100.00;101301.53;5036207;28;20086;-78
2023/02/26 07:54:41;;;;;;;3.03;0.77;;;-0.90;99.90;;;-2.71;100.00;101310.47;5036310;28;20334;-80
2023/02/26 07:57:06;;;;;;;3.78;1.10;;;-0.80;99.90;;;-2.71;100.00;101307.78;5041578;28;20072;-80
2023/02/26 07:59:32;;;;;;;3.20;1.13;;;-0.70;99.90;;;-2.52;100.00;101317.09;5039424;28;21001;-79
2023/02/26 08:01:58;;;;;;;2.75;0.80;;;-0.60;99.90;;;-2.50;100.00;101325.88;5043223;28;20037;-80
2023/02/26 08:04:24;;;;;;;8.30;0.88;;;-0.60;99.90;;;-2.48;100.00;101326.59;5044713;28;20036;-83
2023/02/26 08:06:50;;;;;;;1.77;0.90;;;-0.60;99.90;;;-2.42;100.00;101328.81;5036155;28;20103;-78
2023/02/26 08:09:15;;;;;;;1.70;0.77;;;-0.60;99.90;;;-2.37;100.00;101307.09;5055160;28;20074;-79
2023/02/26 08:11:42;;;;;;;4.07;1.10;;;-0.50;99.90;;;-2.25;100.00;101324.88;5033061;28;20056;-79
2023/02/26 08:14:09;;;;;;;1.33;0.38;;;-0.30;99.90;;;-2.21;100.00;101323.66;5049892;28;20029;-78
2023/02/26 08:16:35;;;;;;;3.65;0.60;;;-0.30;99.90;;;-2.14;100.00;101337.41;5048282;28;20040;-77
2023/02/26 08:19:01;;;;;;;1.42;0.70;;;-0.20;99.90;;;-1.99;100.00;101343.41;5045097;28;20037;-80
2023/02/26 08:21:27;;;;;;;2.45;0.80;;;-0.10;99.90;;;-1.93;100.00;101323.38;5045268;28;20069;-78
2023/02/26 08:23:53;;;;;;;1.10;0.47;;;0.00;99.90;;;-1.91;100.00;101326.78;5047575;28;20087;-80
2023/02/26 08:26:18;;;;;;;3.20;0.80;;;0.00;99.90;;;-1.77;100.00;101341.78;5045397;28;20067;-78
2023/02/26 08:28:46;;;;;;;4.72;0.85;;;0.10;99.90;;;-1.67;100.00;101348.09;5046410;28;20041;-77
2023/02/26 08:31:12;;;;;;;1.67;0.50;;;0.20;99.90;;;-1.54;100.00;101348.00;5045011;28;20040;-78
2023/02/26 08:33:38;;;;;;;4.72;0.77;;;0.30;99.90;;;-1.61;100.00;101342.25;5049534;28;20028;-80
2023/02/26 08:36:05;;;;;;;2.70;0.70;;;0.30;99.90;;;-1.57;100.00;101353.59;5039689;28;20053;-78
2023/02/26 08:38:31;;;;;;;5.70;0.80;;;0.30;99.90;;;-1.43;99.93;101357.03;5041498;28;20041;-78
2023/02/26 08:40:58;;;;;;;1.40;0.52;;;0.50;99.90;;;-1.27;100.00;101367.38;5038669;28;20037;-78
2023/02/26 08:43:25;;;;;;;2.85;0.65;;;0.50;99.90;;;-1.19;99.17;101362.25;5050754;28;20037;-81
2023/02/26 08:45:56;;;;;;;2.17;0.57;;;0.60;99.90;;;-1.11;97.60;101358.97;5049374;28;20086;-79
2023/02/26 08:48:23;;;;;;;2.58;0.90;;;0.70;99.90;;;-1.25;97.21;101365.41;5049498;28;20040;-79
2023/02/26 08:50:49;;;;;;;4.13;0.63;;;0.70;99.90;;;-1.16;98.03;101368.22;5050221;28;20500;-81
2023/02/26 08:53:16;;;;;;;2.05;0.63;;;0.70;99.90;;;-1.12;97.46;101368.81;5048707;28;20060;-79
2023/02/26 08:55:43;;;;;;;3.50;0.95;;;0.80;99.90;;;-0.99;96.59;101368.69;5048066;28;20037;-78
2023/02/26 08:58:09;;;;;;;3.17;1.00;;;0.90;99.90;;;-0.92;94.77;101364.56;5048548;28;20096;-77
2023/02/26 09:00:35;;;;;;;5.72;1.35;;;1.00;99.90;;;-0.64;95.45;101382.88;5044166;28;20472;-84
2023/02/26 09:03:01;;;;;;;3.47;0.90;;;1.10;99.90;;;-0.54;92.88;101378.47;5049521;28;20063;-83
2023/02/26 09:05:27;;;;;;;3.25;0.75;;;1.30;99.90;;;-0.44;92.68;101375.88;5054054;28;20059;-81
2023/02/26 09:07:52;;;;;;;2.45;0.85;;;1.40;99.90;;;-0.46;91.18;101369.78;5048641;28;20314;-83
2023/02/26 09:10:18;;;;;;;1.38;0.40;;;1.40;99.90;;;-0.49;87.87;101381.63;5047508;28;20045;-85
2023/02/26 09:12:45;;;;;;;2.28;0.32;;;1.40;99.90;;;-0.37;87.75;101384.28;5053555;28;20095;-86
2023/02/26 09:15:13;;;;;;;3.05;0.68;;;1.50;99.90;;;-0.26;88.38;101397.66;5040437;28;20045;-82
2023/02/26 09:17:40;;;;;;;3.35;0.77;;;1.60;99.90;;;-0.13;88.78;101396.63;5049216;28;20033;-83
2023/02/26 09:20:08;;;;;;;3.03;0.95;;;1.60;99.90;;;-0.05;87.50;101397.69;5047524;28;20067;-84
2023/02/26 09:22:34;;;;;;;3.00;0.95;;;1.80;99.90;;;-0.37;84.70;101390.50;5037581;28;20107;-84
2023/02/26 09:25:00;;;;;;;1.63;0.30;;;1.60;99.90;;;-0.22;84.23;101399.09;5045656;28;20041;-84
2023/02/26 09:27:26;;;;;;;5.30;0.90;;;1.60;99.90;;;-0.20;84.38;101402.50;5038465;28;20120;-83
2023/02/26 09:29:51;;;;;;;5.03;0.77;;;1.60;99.90;;;0.05;83.13;101400.47;5047520;28;20044;-82
2023/02/26 09:32:17;;;;;;;3.42;0.80;;;1.80;99.90;;;0.19;81.75;101398.41;5050562;28;20037;-85
2023/02/26 09:34:43;;;;;;;1.10;0.40;;;2.00;99.90;;;-0.14;78.21;101390.41;5049509;28;20020;-79
2023/02/26 09:37:09;;;;;;;4.28;0.88;;;1.80;99.90;;;0.27;83.25;101406.69;5055204;28;20413;-81
2023/02/26 09:39:36;;;;;;;2.17;0.80;;;2.00;99.90;;;0.47;80.80;101410.34;5033497;28;20034;-83
2023/02/26 09:42:44;;;;;;;4.13;0.88;;;2.20;99.90;;;0.73;78.05;101414.44;5033096;28;20110;-85
2023/02/26 09:45:32;;;;;;;4.40;1.00;;;2.40;99.90;;;0.66;74.91;101398.00;5037077;28;20488;-83
2023/02/26 09:48:02;;;;;;;3.78;0.80;;;2.50;99.90;;;0.89;75.24;101403.22;5047959;28;20071;-83
2023/02/26 09:50:46;;;;;;;2.88;0.68;;;2.60;99.90;;;0.94;72.37;101401.00;5038175;28;20039;-83
2023/02/26 09:53:30;;;;;;;2.70;0.70;;;2.80;99.90;;;0.64;68.25;101384.72;5039202;28;20037;-81
2023/02/26 09:56:05;;;;;;;4.95;0.85;;;2.60;99.90;;;0.99;69.39;101399.56;5043190;28;20083;-80
2023/02/26 09:58:40;;;;;;;3.63;0.95;;;2.70;99.90;;;1.41;66.90;101386.97;5039007;28;20037;-80
2023/02/26 10:01:28;;;;;;;1.98;0.60;;;3.20;99.90;;;1.75;64.73;101383.06;5042384;28;20112;-83
2023/02/26 10:04:14;;;;;;;6.05;0.88;;;3.70;99.90;;;1.39;62.00;101384.41;5062185;28;20047;-83
2023/02/26 10:07:03;;;;;;;2.85;0.70;;;4.10;99.90;;;1.65;61.56;101394.66;5044503;28;20392;-86
2023/02/26 10:10:00;;;;;;;1.98;0.43;;;4.50;99.90;;;1.61;60.73;101395.94;5046094;28;20029;-80
2023/02/26 10:12:31;;;;;;;2.13;0.60;;;4.60;97.80;;;2.71;57.91;101399.25;5045236;28;20107;-83
2023/02/26 10:15:25;;;;;;;2.42;0.57;;;6.20;94.90;;;4.31;53.61;101388.16;5040414;28;20557;-85
2023/02/26 10:18:18;;;;;;;2.83;0.70;;;8.00;90.30;;;5.52;49.50;101372.00;5041209;28;20051;-84
2023/02/26 10:21:02;;;;;;;0.50;0.32;;;9.30;80.80;;;5.04;47.06;101378.78;5046093;28;20032;-84
2023/02/26 10:23:45;;;;;;;0.90;0.40;;;9.30;74.40;;;4.20;48.15;101389.25;5041646;28;20481;-83
2023/02/26 10:26:23;;;;;;;2.25;0.70;;;7.60;76.20;;;4.16;48.99;101395.97;5057099;28;20078;-82
2023/02/26 10:29:48;;;;;;;2.15;0.80;;;6.60;80.60;;;7.08;42.68;101364.78;5036535;28;20048;-82
2023/02/26 10:32:32;;;;;;;3.75;0.60;;;8.40;77.00;;;6.80;40.46;101357.09;5025336;28;20073;-81
2023/02/26 10:35:01;;;;;;;1.52;0.45;;;9.30;70.50;;;8.32;39.05;101369.38;5056589;28;20021;-85